This is the latest recevied weather packets stored in our database for station/object W8CWV-13. If no packets are shown the sender has not sent any weather packets the latest 10 day(s).
| Time | Temp. | Humidity | Pressure | Rain* | Wind** | Luminosity | Snow |
|---|---|---|---|---|---|---|---|
| 1777819484 | 11.11° C | 100% | 1025.7 hPa | - | - | - | - |
| 1777818914 | 12.78° C | 100% | 1025.5 hPa | - | - | - | - |
| 1777818345 | 12.78° C | 100% | 1025.5 hPa | - | - | - | - |
| 1777817768 | 12.78° C | 100% | 1025.2 hPa | - | - | - | - |
| 1777817192 | 11.67° C | 100% | 1025.4 hPa | - | - | - | - |
| 1777816619 | 10.56° C | 100% | 1025.3 hPa | - | - | - | - |
| 1777816049 | 11.67° C | 100% | 1025.1 hPa | - | - | - | - |
| 1777815472 | 11.11° C | 100% | 1025.2 hPa | - | - | - | - |
| 1777814901 | 10.56° C | 100% | 1025.3 hPa | - | - | - | - |
| 1777814329 | 10° C | 100% | 1025.2 hPa | - | - | - | - |
| 1777813754 | 10.56° C | 100% | 1025.2 hPa | - | - | - | - |
| 1777813182 | 10° C | 100% | 1025.2 hPa | - | - | - | - |
| 1777812609 | 10° C | 100% | 1025.2 hPa | - | - | - | - |
| 1777812041 | 10° C | 100% | 1025.1 hPa | - | - | - | - |
| 1777811469 | 10° C | 100% | 1025 hPa | - | - | - | - |
| 1777810897 | 8.89° C | 100% | 1025.1 hPa | - | - | - | - |
| 1777810317 | 7.78° C | 100% | 1025.2 hPa | - | - | - | - |
| 1777809740 | 7.78° C | 100% | 1025.2 hPa | - | - | - | - |
| 1777809169 | 7.78° C | 100% | 1025.1 hPa | - | - | - | - |
| 1777808590 | 6.67° C | 100% | 1025.3 hPa | - | - | - | - |
| 1777808016 | 5.56° C | 100% | 1025.6 hPa | - | - | - | - |
| 1777807446 | 5° C | 100% | 1025.5 hPa | - | - | - | - |
| 1777806873 | 4.44° C | 100% | 1025.7 hPa | - | - | - | - |
| 1777806299 | 3.89° C | 100% | 1025.6 hPa | - | - | - | - |
| 1777805728 | 4.44° C | 100% | 1025.6 hPa | - | - | - | - |
* Rain since midnight (hover to see other rain measurements)
** Current wind speed in m/s (hover to see current wind gust speed)